Portada
METAR-TAF:

METAR-TAF

Aeroports :

Amman-Queen Alia, Jordània

latitud: 31-40N, longitud: 035-58E, altitud: 721 m

Observació

L'informe es va fer fa 53 minuts, a les 21:00 UTC
Vent 4 kt del Est/Sud-Est
Temperatura 20°C
Humitat 28%
Pressió 1019 hPa
Visibilitat: 5000 m
calitja,

METAR: OJAI 232100Z 12004KT 5000 HZ NSC 20/01 Q1019 NOSIG

Hora: 00:53 (21:53 UTC)

Pronòstic

L'informe es va fer fa 4 hores i 49 minuts, a les 17:04 UTC
Pronòstic vàlid del 23 a les 18 UTC al 24 a les 00 UTC
Vent 10 kt del Est/Sud-Est
Visibilitat: 5000 m
calitja
Temporalment
l' 24 a les 09 UTC al 24 a les 15 UTC
Vent 18 kt del Sud-Est
Visibilitat: 3000 m
torb alta de pols,

TAF: OJAI 231704Z 2318/2400 11010KT 5000 HZ NSC TEMPO 2409/2415 13018KT 3000 BLDU

Observacions i pronòstics meteorològics de més de 4000 aeroports (METAR i TAF).

Les estacions disponibles són els punts grocs i vermells al mapa.

Posi el ratolí al punt desitjat per veure el nom de l'estació.

Feu clic per veure les observacions i els pronòstics meteorològics.

Per canviar el mapa: feu clic els botons verds amb una creu de color negre per apropar; al botó verd amb un guió per allunyar la imatge; o en les fletxes verdes per a mapes adjacents.


METAR-TAF: